sensor_id;sensor_type;location;lat;lon;timestamp;P1;durP1;ratioP1;P2;durP2;ratioP2
43807;SDS011;29438;50.664;10.098;2022-11-11T00:03:29;1.05;;;0.20;;
43807;SDS011;29438;50.664;10.098;2022-11-11T00:06:02;1.17;;;0.40;;
43807;SDS011;29438;50.664;10.098;2022-11-11T00:08:28;5.00;;;1.13;;
43807;SDS011;29438;50.664;10.098;2022-11-11T00:11:01;3.42;;;0.60;;
43807;SDS011;29438;50.664;10.098;2022-11-11T00:13:28;2.55;;;0.60;;
43807;SDS011;29438;50.664;10.098;2022-11-11T00:15:54;3.35;;;0.93;;
43807;SDS011;29438;50.664;10.098;2022-11-11T00:18:20;7.35;;;1.23;;
43807;SDS011;29438;50.664;10.098;2022-11-11T00:21:07;5.55;;;1.40;;
43807;SDS011;29438;50.664;10.098;2022-11-11T00:23:56;4.40;;;0.80;;
43807;SDS011;29438;50.664;10.098;2022-11-11T00:26:40;3.38;;;0.60;;
43807;SDS011;29438;50.664;10.098;2022-11-11T00:29:05;4.00;;;0.63;;
43807;SDS011;29438;50.664;10.098;2022-11-11T00:31:31;4.82;;;0.55;;
43807;SDS011;29438;50.664;10.098;2022-11-11T00:33:58;2.20;;;0.32;;
43807;SDS011;29438;50.664;10.098;2022-11-11T00:36:24;2.90;;;0.60;;
43807;SDS011;29438;50.664;10.098;2022-11-11T00:38:50;2.90;;;0.30;;
43807;SDS011;29438;50.664;10.098;2022-11-11T00:41:19;4.32;;;0.30;;
43807;SDS011;29438;50.664;10.098;2022-11-11T00:43:47;1.30;;;0.20;;
43807;SDS011;29438;50.664;10.098;2022-11-11T00:46:13;3.00;;;0.30;;
43807;SDS011;29438;50.664;10.098;2022-11-11T00:48:58;1.83;;;0.30;;
43807;SDS011;29438;50.664;10.098;2022-11-11T00:51:43;9.55;;;0.20;;
43807;SDS011;29438;50.664;10.098;2022-11-11T00:54:09;0.88;;;0.10;;
43807;SDS011;29438;50.664;10.098;2022-11-11T00:56:36;2.75;;;0.38;;
43807;SDS011;29438;50.664;10.098;2022-11-11T00:59:06;2.50;;;0.22;;
43807;SDS011;29438;50.664;10.098;2022-11-11T01:01:33;3.10;;;0.17;;
43807;SDS011;29438;50.664;10.098;2022-11-11T01:04:00;5.35;;;0.60;;
43807;SDS011;29438;50.664;10.098;2022-11-11T01:06:26;4.88;;;0.52;;
43807;SDS011;29438;50.664;10.098;2022-11-11T01:08:52;1.52;;;0.40;;
43807;SDS011;29438;50.664;10.098;2022-11-11T01:11:19;3.28;;;0.85;;
43807;SDS011;29438;50.664;10.098;2022-11-11T01:13:46;3.15;;;0.60;;
43807;SDS011;29438;50.664;10.098;2022-11-11T01:16:13;1.98;;;0.40;;
43807;SDS011;29438;50.664;10.098;2022-11-11T01:18:41;2.30;;;0.40;;
43807;SDS011;29438;50.664;10.098;2022-11-11T01:21:07;2.80;;;0.57;;
43807;SDS011;29438;50.664;10.098;2022-11-11T01:23:39;3.75;;;0.32;;
43807;SDS011;29438;50.664;10.098;2022-11-11T01:28:44;3.13;;;0.45;;
43807;SDS011;29438;50.664;10.098;2022-11-11T01:31:12;2.22;;;0.30;;
43807;SDS011;29438;50.664;10.098;2022-11-11T01:33:39;3.47;;;0.47;;
43807;SDS011;29438;50.664;10.098;2022-11-11T01:36:06;1.77;;;0.40;;
43807;SDS011;29438;50.664;10.098;2022-11-11T01:38:39;1.55;;;0.22;;
43807;SDS011;29438;50.664;10.098;2022-11-11T01:41:06;2.00;;;0.40;;
43807;SDS011;29438;50.664;10.098;2022-11-11T01:46:38;3.75;;;0.70;;
43807;SDS011;29438;50.664;10.098;2022-11-11T01:51:56;4.38;;;1.00;;
43807;SDS011;29438;50.664;10.098;2022-11-11T01:59:41;5.18;;;1.45;;
43807;SDS011;29438;50.664;10.098;2022-11-11T02:02:16;9.85;;;2.63;;
43807;SDS011;29438;50.664;10.098;2022-11-11T02:04:50;6.18;;;2.17;;
43807;SDS011;29438;50.664;10.098;2022-11-11T02:07:34;6.22;;;2.13;;
43807;SDS011;29438;50.664;10.098;2022-11-11T02:10:02;7.38;;;2.28;;
43807;SDS011;29438;50.664;10.098;2022-11-11T02:12:31;7.20;;;1.92;;
43807;SDS011;29438;50.664;10.098;2022-11-11T02:15:15;6.07;;;2.25;;
43807;SDS011;29438;50.664;10.098;2022-11-11T02:17:41;6.78;;;2.28;;
43807;SDS011;29438;50.664;10.098;2022-11-11T02:20:07;8.50;;;2.60;;
43807;SDS011;29438;50.664;10.098;2022-11-11T02:22:41;6.35;;;2.25;;
43807;SDS011;29438;50.664;10.098;2022-11-11T02:25:13;10.65;;;3.13;;
43807;SDS011;29438;50.664;10.098;2022-11-11T02:27:44;6.22;;;2.70;;
43807;SDS011;29438;50.664;10.098;2022-11-11T02:30:14;7.53;;;2.70;;
43807;SDS011;29438;50.664;10.098;2022-11-11T02:32:44;19.23;;;3.30;;
43807;SDS011;29438;50.664;10.098;2022-11-11T02:35:16;27.20;;;3.20;;
43807;SDS011;29438;50.664;10.098;2022-11-11T02:37:44;10.73;;;2.47;;
43807;SDS011;29438;50.664;10.098;2022-11-11T02:40:16;10.20;;;2.58;;
43807;SDS011;29438;50.664;10.098;2022-11-11T02:42:42;8.43;;;2.75;;
43807;SDS011;29438;50.664;10.098;2022-11-11T02:45:08;10.10;;;2.65;;
43807;SDS011;29438;50.664;10.098;2022-11-11T02:47:34;18.30;;;3.17;;
43807;SDS011;29438;50.664;10.098;2022-11-11T02:50:00;11.55;;;2.63;;
43807;SDS011;29438;50.664;10.098;2022-11-11T02:52:25;14.07;;;2.85;;
43807;SDS011;29438;50.664;10.098;2022-11-11T02:54:51;7.10;;;2.38;;
43807;SDS011;29438;50.664;10.098;2022-11-11T02:57:16;13.60;;;2.97;;
43807;SDS011;29438;50.664;10.098;2022-11-11T02:59:42;11.50;;;3.15;;
43807;SDS011;29438;50.664;10.098;2022-11-11T03:02:08;10.48;;;3.60;;
43807;SDS011;29438;50.664;10.098;2022-11-11T03:04:34;11.57;;;3.38;;
43807;SDS011;29438;50.664;10.098;2022-11-11T03:07:01;16.13;;;3.63;;
43807;SDS011;29438;50.664;10.098;2022-11-11T03:09:26;14.98;;;3.72;;
43807;SDS011;29438;50.664;10.098;2022-11-11T03:11:52;12.27;;;3.53;;
43807;SDS011;29438;50.664;10.098;2022-11-11T03:14:18;12.40;;;3.45;;
43807;SDS011;29438;50.664;10.098;2022-11-11T03:16:43;13.38;;;3.58;;
43807;SDS011;29438;50.664;10.098;2022-11-11T03:19:27;10.32;;;2.85;;
43807;SDS011;29438;50.664;10.098;2022-11-11T03:21:53;23.30;;;3.53;;
43807;SDS011;29438;50.664;10.098;2022-11-11T03:24:19;11.20;;;3.35;;
43807;SDS011;29438;50.664;10.098;2022-11-11T03:26:45;11.38;;;3.28;;
43807;SDS011;29438;50.664;10.098;2022-11-11T03:29:11;10.48;;;2.65;;
43807;SDS011;29438;50.664;10.098;2022-11-11T03:31:37;14.27;;;3.08;;
43807;SDS011;29438;50.664;10.098;2022-11-11T03:34:03;15.00;;;3.15;;
43807;SDS011;29438;50.664;10.098;2022-11-11T03:36:57;16.05;;;2.67;;
43807;SDS011;29438;50.664;10.098;2022-11-11T03:39:42;18.08;;;2.65;;
43807;SDS011;29438;50.664;10.098;2022-11-11T03:42:07;17.90;;;3.60;;
43807;SDS011;29438;50.664;10.098;2022-11-11T03:44:33;8.73;;;2.80;;
43807;SDS011;29438;50.664;10.098;2022-11-11T03:46:58;11.32;;;3.30;;
43807;SDS011;29438;50.664;10.098;2022-11-11T03:49:24;11.52;;;2.63;;
43807;SDS011;29438;50.664;10.098;2022-11-11T03:51:49;10.80;;;2.90;;
43807;SDS011;29438;50.664;10.098;2022-11-11T03:54:15;12.73;;;3.08;;
43807;SDS011;29438;50.664;10.098;2022-11-11T03:56:40;12.52;;;3.05;;
43807;SDS011;29438;50.664;10.098;2022-11-11T03:59:06;9.40;;;3.08;;
43807;SDS011;29438;50.664;10.098;2022-11-11T04:01:31;10.95;;;3.28;;
43807;SDS011;29438;50.664;10.098;2022-11-11T04:04:16;9.60;;;2.67;;
43807;SDS011;29438;50.664;10.098;2022-11-11T04:07:00;8.05;;;2.70;;
43807;SDS011;29438;50.664;10.098;2022-11-11T04:09:44;10.90;;;2.97;;
43807;SDS011;29438;50.664;10.098;2022-11-11T04:12:28;9.85;;;2.95;;
43807;SDS011;29438;50.664;10.098;2022-11-11T04:14:55;14.57;;;3.13;;
43807;SDS011;29438;50.664;10.098;2022-11-11T04:17:39;11.57;;;3.15;;
43807;SDS011;29438;50.664;10.098;2022-11-11T04:20:05;10.38;;;2.88;;
43807;SDS011;29438;50.664;10.098;2022-11-11T04:22:49;11.13;;;3.20;;
43807;SDS011;29438;50.664;10.098;2022-11-11T04:25:17;10.27;;;3.10;;
43807;SDS011;29438;50.664;10.098;2022-11-11T04:28:02;9.18;;;3.22;;
43807;SDS011;29438;50.664;10.098;2022-11-11T04:30:46;10.48;;;3.25;;
43807;SDS011;29438;50.664;10.098;2022-11-11T04:33:11;11.75;;;3.38;;
43807;SDS011;29438;50.664;10.098;2022-11-11T04:35:37;14.00;;;3.28;;
43807;SDS011;29438;50.664;10.098;2022-11-11T04:38:02;9.55;;;3.08;;
43807;SDS011;29438;50.664;10.098;2022-11-11T04:40:47;13.95;;;2.88;;
43807;SDS011;29438;50.664;10.098;2022-11-11T04:43:30;7.13;;;2.90;;
43807;SDS011;29438;50.664;10.098;2022-11-11T04:45:59;7.40;;;2.97;;
43807;SDS011;29438;50.664;10.098;2022-11-11T04:48:25;11.80;;;3.10;;
43807;SDS011;29438;50.664;10.098;2022-11-11T04:50:51;10.07;;;3.03;;
43807;SDS011;29438;50.664;10.098;2022-11-11T04:53:17;11.93;;;2.83;;
43807;SDS011;29438;50.664;10.098;2022-11-11T04:55:43;7.72;;;3.05;;
43807;SDS011;29438;50.664;10.098;2022-11-11T04:58:29;5.78;;;2.50;;
43807;SDS011;29438;50.664;10.098;2022-11-11T05:00:56;9.27;;;2.47;;
43807;SDS011;29438;50.664;10.098;2022-11-11T05:03:22;9.70;;;2.75;;
43807;SDS011;29438;50.664;10.098;2022-11-11T05:05:48;8.20;;;2.58;;
43807;SDS011;29438;50.664;10.098;2022-11-11T05:08:44;7.80;;;2.85;;
43807;SDS011;29438;50.664;10.098;2022-11-11T05:11:21;7.80;;;2.95;;
43807;SDS011;29438;50.664;10.098;2022-11-11T05:13:47;6.70;;;2.67;;
43807;SDS011;29438;50.664;10.098;2022-11-11T05:16:32;7.60;;;2.58;;
43807;SDS011;29438;50.664;10.098;2022-11-11T05:19:20;7.70;;;2.33;;
43807;SDS011;29438;50.664;10.098;2022-11-11T05:22:09;6.97;;;2.40;;
43807;SDS011;29438;50.664;10.098;2022-11-11T05:24:40;8.50;;;2.58;;
43807;SDS011;29438;50.664;10.098;2022-11-11T05:27:24;8.88;;;2.60;;
43807;SDS011;29438;50.664;10.098;2022-11-11T05:29:50;10.40;;;2.95;;
43807;SDS011;29438;50.664;10.098;2022-11-11T05:32:17;7.88;;;3.00;;
43807;SDS011;29438;50.664;10.098;2022-11-11T05:34:44;7.88;;;2.65;;
43807;SDS011;29438;50.664;10.098;2022-11-11T05:37:10;7.20;;;2.53;;
43807;SDS011;29438;50.664;10.098;2022-11-11T05:39:36;7.90;;;2.92;;
43807;SDS011;29438;50.664;10.098;2022-11-11T05:42:02;9.15;;;3.47;;
43807;SDS011;29438;50.664;10.098;2022-11-11T05:44:27;7.72;;;2.47;;
43807;SDS011;29438;50.664;10.098;2022-11-11T05:46:53;10.13;;;3.35;;
43807;SDS011;29438;50.664;10.098;2022-11-11T05:49:18;8.68;;;2.85;;
43807;SDS011;29438;50.664;10.098;2022-11-11T05:51:45;13.27;;;4.15;;
43807;SDS011;29438;50.664;10.098;2022-11-11T05:54:11;9.68;;;3.17;;
43807;SDS011;29438;50.664;10.098;2022-11-11T05:56:37;10.10;;;2.85;;
43807;SDS011;29438;50.664;10.098;2022-11-11T05:59:03;11.23;;;3.40;;
43807;SDS011;29438;50.664;10.098;2022-11-11T06:01:29;8.45;;;2.97;;
43807;SDS011;29438;50.664;10.098;2022-11-11T06:03:55;7.70;;;2.85;;
43807;SDS011;29438;50.664;10.098;2022-11-11T06:06:20;8.75;;;2.90;;
43807;SDS011;29438;50.664;10.098;2022-11-11T06:08:46;9.40;;;2.78;;
43807;SDS011;29438;50.664;10.098;2022-11-11T06:11:12;11.15;;;2.85;;
43807;SDS011;29438;50.664;10.098;2022-11-11T06:13:37;12.00;;;2.97;;
43807;SDS011;29438;50.664;10.098;2022-11-11T06:16:03;11.43;;;3.20;;
43807;SDS011;29438;50.664;10.098;2022-11-11T06:18:29;13.15;;;3.67;;
43807;SDS011;29438;50.664;10.098;2022-11-11T06:20:54;8.90;;;3.08;;
43807;SDS011;29438;50.664;10.098;2022-11-11T06:23:22;8.63;;;2.38;;
43807;SDS011;29438;50.664;10.098;2022-11-11T06:25:48;9.95;;;2.88;;
43807;SDS011;29438;50.664;10.098;2022-11-11T06:28:33;9.00;;;2.97;;
43807;SDS011;29438;50.664;10.098;2022-11-11T06:30:59;8.43;;;2.90;;
43807;SDS011;29438;50.664;10.098;2022-11-11T06:33:24;9.10;;;2.80;;
43807;SDS011;29438;50.664;10.098;2022-11-11T06:35:50;6.93;;;2.55;;
43807;SDS011;29438;50.664;10.098;2022-11-11T06:38:16;7.20;;;2.33;;
43807;SDS011;29438;50.664;10.098;2022-11-11T06:40:42;7.30;;;2.58;;
43807;SDS011;29438;50.664;10.098;2022-11-11T06:43:08;11.45;;;2.83;;
43807;SDS011;29438;50.664;10.098;2022-11-11T06:45:34;6.93;;;2.45;;
43807;SDS011;29438;50.664;10.098;2022-11-11T06:48:00;8.70;;;3.08;;
43807;SDS011;29438;50.664;10.098;2022-11-11T06:50:26;9.00;;;2.33;;
43807;SDS011;29438;50.664;10.098;2022-11-11T06:52:53;7.75;;;2.53;;
43807;SDS011;29438;50.664;10.098;2022-11-11T06:55:19;8.75;;;2.92;;
43807;SDS011;29438;50.664;10.098;2022-11-11T06:57:45;9.13;;;3.28;;
43807;SDS011;29438;50.664;10.098;2022-11-11T07:00:10;13.95;;;4.22;;
43807;SDS011;29438;50.664;10.098;2022-11-11T07:02:37;9.52;;;3.90;;
43807;SDS011;29438;50.664;10.098;2022-11-11T07:05:02;11.13;;;4.15;;
43807;SDS011;29438;50.664;10.098;2022-11-11T07:07:28;11.48;;;3.80;;
43807;SDS011;29438;50.664;10.098;2022-11-11T07:09:54;12.43;;;4.35;;
43807;SDS011;29438;50.664;10.098;2022-11-11T07:12:20;10.13;;;3.78;;
43807;SDS011;29438;50.664;10.098;2022-11-11T07:14:46;12.93;;;4.25;;
43807;SDS011;29438;50.664;10.098;2022-11-11T07:17:12;11.70;;;3.97;;
43807;SDS011;29438;50.664;10.098;2022-11-11T07:19:38;12.50;;;4.50;;
43807;SDS011;29438;50.664;10.098;2022-11-11T07:22:03;17.58;;;5.75;;
43807;SDS011;29438;50.664;10.098;2022-11-11T07:24:29;15.82;;;4.82;;
43807;SDS011;29438;50.664;10.098;2022-11-11T07:26:54;14.73;;;5.55;;
43807;SDS011;29438;50.664;10.098;2022-11-11T07:29:20;16.35;;;5.53;;
43807;SDS011;29438;50.664;10.098;2022-11-11T07:31:46;14.82;;;5.10;;
43807;SDS011;29438;50.664;10.098;2022-11-11T07:34:12;13.73;;;4.15;;
43807;SDS011;29438;50.664;10.098;2022-11-11T07:36:37;14.02;;;4.60;;
43807;SDS011;29438;50.664;10.098;2022-11-11T07:39:03;23.10;;;9.40;;
43807;SDS011;29438;50.664;10.098;2022-11-11T07:41:28;24.58;;;10.70;;
43807;SDS011;29438;50.664;10.098;2022-11-11T07:43:54;13.18;;;6.10;;
43807;SDS011;29438;50.664;10.098;2022-11-11T07:46:19;9.30;;;3.88;;
43807;SDS011;29438;50.664;10.098;2022-11-11T07:48:45;9.18;;;3.75;;
43807;SDS011;29438;50.664;10.098;2022-11-11T07:51:10;7.28;;;2.90;;
43807;SDS011;29438;50.664;10.098;2022-11-11T07:53:36;8.25;;;3.45;;
43807;SDS011;29438;50.664;10.098;2022-11-11T07:56:02;9.38;;;3.72;;
43807;SDS011;29438;50.664;10.098;2022-11-11T07:58:27;6.65;;;3.10;;
43807;SDS011;29438;50.664;10.098;2022-11-11T08:00:53;9.80;;;3.50;;
43807;SDS011;29438;50.664;10.098;2022-11-11T08:03:18;6.45;;;2.67;;
43807;SDS011;29438;50.664;10.098;2022-11-11T08:05:44;3.72;;;1.33;;
43807;SDS011;29438;50.664;10.098;2022-11-11T08:08:09;2.60;;;1.30;;
43807;SDS011;29438;50.664;10.098;2022-11-11T08:10:35;3.13;;;1.45;;
43807;SDS011;29438;50.664;10.098;2022-11-11T08:13:01;2.90;;;1.00;;
43807;SDS011;29438;50.664;10.098;2022-11-11T08:15:46;2.95;;;1.13;;
43807;SDS011;29438;50.664;10.098;2022-11-11T08:18:12;2.75;;;1.10;;
43807;SDS011;29438;50.664;10.098;2022-11-11T08:20:38;3.22;;;1.05;;
43807;SDS011;29438;50.664;10.098;2022-11-11T08:23:03;2.70;;;1.00;;
43807;SDS011;29438;50.664;10.098;2022-11-11T08:25:29;2.33;;;1.17;;
43807;SDS011;29438;50.664;10.098;2022-11-11T08:27:59;3.05;;;1.00;;
43807;SDS011;29438;50.664;10.098;2022-11-11T08:30:27;2.50;;;0.95;;
43807;SDS011;29438;50.664;10.098;2022-11-11T08:33:00;2.47;;;1.15;;
43807;SDS011;29438;50.664;10.098;2022-11-11T08:35:30;2.72;;;1.15;;
43807;SDS011;29438;50.664;10.098;2022-11-11T08:38:02;2.30;;;0.75;;
43807;SDS011;29438;50.664;10.098;2022-11-11T08:40:27;2.20;;;1.00;;
43807;SDS011;29438;50.664;10.098;2022-11-11T08:42:56;2.75;;;1.10;;
43807;SDS011;29438;50.664;10.098;2022-11-11T08:45:23;2.75;;;1.13;;
43807;SDS011;29438;50.664;10.098;2022-11-11T08:47:50;2.55;;;1.10;;
43807;SDS011;29438;50.664;10.098;2022-11-11T08:50:16;3.42;;;1.23;;
43807;SDS011;29438;50.664;10.098;2022-11-11T08:52:48;3.05;;;1.30;;
43807;SDS011;29438;50.664;10.098;2022-11-11T08:55:15;3.90;;;1.00;;
43807;SDS011;29438;50.664;10.098;2022-11-11T08:57:42;3.47;;;1.25;;
43807;SDS011;29438;50.664;10.098;2022-11-11T09:00:08;3.13;;;1.30;;
43807;SDS011;29438;50.664;10.098;2022-11-11T09:02:35;3.83;;;1.33;;
43807;SDS011;29438;50.664;10.098;2022-11-11T09:05:00;2.75;;;1.38;;
43807;SDS011;29438;50.664;10.098;2022-11-11T09:07:26;3.42;;;1.60;;
43807;SDS011;29438;50.664;10.098;2022-11-11T09:09:52;3.17;;;1.50;;
43807;SDS011;29438;50.664;10.098;2022-11-11T09:12:18;2.70;;;1.33;;
43807;SDS011;29438;50.664;10.098;2022-11-11T09:14:43;3.20;;;1.35;;
43807;SDS011;29438;50.664;10.098;2022-11-11T09:17:09;5.65;;;2.35;;
43807;SDS011;29438;50.664;10.098;2022-11-11T09:19:35;4.38;;;2.22;;
43807;SDS011;29438;50.664;10.098;2022-11-11T09:22:00;4.45;;;2.10;;
43807;SDS011;29438;50.664;10.098;2022-11-11T09:24:26;5.20;;;2.10;;
43807;SDS011;29438;50.664;10.098;2022-11-11T09:26:51;5.03;;;2.33;;
43807;SDS011;29438;50.664;10.098;2022-11-11T09:29:17;6.53;;;2.85;;
43807;SDS011;29438;50.664;10.098;2022-11-11T09:31:44;5.95;;;2.60;;
43807;SDS011;29438;50.664;10.098;2022-11-11T09:34:10;5.88;;;2.30;;
43807;SDS011;29438;50.664;10.098;2022-11-11T09:36:35;5.20;;;2.63;;
43807;SDS011;29438;50.664;10.098;2022-11-11T09:39:01;5.18;;;2.60;;
43807;SDS011;29438;50.664;10.098;2022-11-11T09:44:02;5.38;;;2.40;;
43807;SDS011;29438;50.664;10.098;2022-11-11T09:55:05;5.40;;;2.28;;
43807;SDS011;29438;50.664;10.098;2022-11-11T10:00:47;5.65;;;2.58;;
43807;SDS011;29438;50.664;10.098;2022-11-11T10:03:21;5.65;;;2.38;;
43807;SDS011;29438;50.664;10.098;2022-11-11T10:05:57;4.65;;;2.45;;
43807;SDS011;29438;50.664;10.098;2022-11-11T10:14:23;3.53;;;1.60;;
43807;SDS011;29438;50.664;10.098;2022-11-11T10:22:17;5.63;;;1.80;;
43807;SDS011;29438;50.664;10.098;2022-11-11T10:24:54;4.00;;;1.95;;
43807;SDS011;29438;50.664;10.098;2022-11-11T10:27:41;4.22;;;1.88;;
43807;SDS011;29438;50.664;10.098;2022-11-11T10:30:19;5.22;;;2.22;;
43807;SDS011;29438;50.664;10.098;2022-11-11T10:33:01;4.22;;;2.25;;
43807;SDS011;29438;50.664;10.098;2022-11-11T10:35:31;5.07;;;2.13;;
43807;SDS011;29438;50.664;10.098;2022-11-11T10:40:48;7.07;;;2.15;;
43807;SDS011;29438;50.664;10.098;2022-11-11T10:43:23;3.38;;;1.80;;
43807;SDS011;29438;50.664;10.098;2022-11-11T10:45:56;3.33;;;1.70;;
43807;SDS011;29438;50.664;10.098;2022-11-11T10:51:06;5.53;;;1.77;;
43807;SDS011;29438;50.664;10.098;2022-11-11T10:53:35;4.43;;;1.98;;
43807;SDS011;29438;50.664;10.098;2022-11-11T10:59:22;4.28;;;2.05;;
43807;SDS011;29438;50.664;10.098;2022-11-11T11:01:54;5.85;;;2.03;;
43807;SDS011;29438;50.664;10.098;2022-11-11T11:04:36;4.72;;;2.10;;
43807;SDS011;29438;50.664;10.098;2022-11-11T11:07:10;4.57;;;1.90;;
43807;SDS011;29438;50.664;10.098;2022-11-11T11:09:48;3.97;;;1.88;;
43807;SDS011;29438;50.664;10.098;2022-11-11T11:12:23;4.13;;;2.15;;
43807;SDS011;29438;50.664;10.098;2022-11-11T11:14:58;4.00;;;2.00;;
43807;SDS011;29438;50.664;10.098;2022-11-11T11:17:30;4.68;;;1.83;;
43807;SDS011;29438;50.664;10.098;2022-11-11T11:20:07;4.53;;;1.80;;
43807;SDS011;29438;50.664;10.098;2022-11-11T11:25:14;5.22;;;1.80;;
43807;SDS011;29438;50.664;10.098;2022-11-11T11:27:42;6.70;;;2.13;;
43807;SDS011;29438;50.664;10.098;2022-11-11T11:30:09;5.05;;;2.53;;
43807;SDS011;29438;50.664;10.098;2022-11-11T11:32:39;5.40;;;2.90;;
43807;SDS011;29438;50.664;10.098;2022-11-11T11:35:09;7.43;;;2.90;;
43807;SDS011;29438;50.664;10.098;2022-11-11T11:37:52;5.95;;;2.38;;
43807;SDS011;29438;50.664;10.098;2022-11-11T11:40:18;6.38;;;2.75;;
43807;SDS011;29438;50.664;10.098;2022-11-11T11:42:44;5.88;;;2.80;;
43807;SDS011;29438;50.664;10.098;2022-11-11T11:45:19;5.05;;;2.47;;
43807;SDS011;29438;50.664;10.098;2022-11-11T11:48:01;6.65;;;2.85;;
43807;SDS011;29438;50.664;10.098;2022-11-11T11:50:48;7.65;;;3.22;;
43807;SDS011;29438;50.664;10.098;2022-11-11T12:01:43;5.57;;;2.60;;
43807;SDS011;29438;50.664;10.098;2022-11-11T12:04:33;4.05;;;2.28;;
43807;SDS011;29438;50.664;10.098;2022-11-11T12:20:57;5.07;;;2.47;;
43807;SDS011;29438;50.664;10.098;2022-11-11T12:26:23;5.88;;;2.65;;
43807;SDS011;29438;50.664;10.098;2022-11-11T12:34:49;6.35;;;2.90;;
43807;SDS011;29438;50.664;10.098;2022-11-11T12:37:41;11.40;;;2.83;;
43807;SDS011;29438;50.664;10.098;2022-11-11T12:43:25;6.90;;;2.88;;
43807;SDS011;29438;50.664;10.098;2022-11-11T12:46:10;5.70;;;2.58;;
43807;SDS011;29438;50.664;10.098;2022-11-11T12:54:15;5.38;;;2.38;;
43807;SDS011;29438;50.664;10.098;2022-11-11T12:57:12;5.45;;;2.53;;
43807;SDS011;29438;50.664;10.098;2022-11-11T13:02:59;4.70;;;1.98;;
43807;SDS011;29438;50.664;10.098;2022-11-11T13:05:42;4.15;;;2.10;;
43807;SDS011;29438;50.664;10.098;2022-11-11T13:11:16;4.35;;;1.80;;
43807;SDS011;29438;50.664;10.098;2022-11-11T13:14:04;4.45;;;2.10;;
43807;SDS011;29438;50.664;10.098;2022-11-11T13:16:35;4.13;;;2.00;;
43807;SDS011;29438;50.664;10.098;2022-11-11T13:19:04;3.33;;;1.70;;
43807;SDS011;29438;50.664;10.098;2022-11-11T13:21:43;4.18;;;1.45;;
43807;SDS011;29438;50.664;10.098;2022-11-11T13:24:26;3.95;;;1.58;;
43807;SDS011;29438;50.664;10.098;2022-11-11T13:31:59;3.47;;;1.60;;
43807;SDS011;29438;50.664;10.098;2022-11-11T13:34:28;4.00;;;2.03;;
43807;SDS011;29438;50.664;10.098;2022-11-11T13:36:58;4.72;;;2.03;;
43807;SDS011;29438;50.664;10.098;2022-11-11T13:39:31;5.00;;;2.08;;
43807;SDS011;29438;50.664;10.098;2022-11-11T13:42:01;4.68;;;1.98;;
43807;SDS011;29438;50.664;10.098;2022-11-11T13:44:49;4.63;;;2.22;;
43807;SDS011;29438;50.664;10.098;2022-11-11T13:47:19;5.13;;;2.22;;
43807;SDS011;29438;50.664;10.098;2022-11-11T13:49:53;5.40;;;2.38;;
43807;SDS011;29438;50.664;10.098;2022-11-11T13:52:27;5.45;;;2.30;;
43807;SDS011;29438;50.664;10.098;2022-11-11T13:55:05;5.38;;;2.35;;
43807;SDS011;29438;50.664;10.098;2022-11-11T13:57:33;3.95;;;1.88;;
43807;SDS011;29438;50.664;10.098;2022-11-11T14:02:46;4.97;;;2.45;;
43807;SDS011;29438;50.664;10.098;2022-11-11T14:18:08;4.78;;;2.20;;
43807;SDS011;29438;50.664;10.098;2022-11-11T14:57:30;6.90;;;3.13;;
43807;SDS011;29438;50.664;10.098;2022-11-11T15:00:00;6.57;;;3.10;;
43807;SDS011;29438;50.664;10.098;2022-11-11T15:02:35;8.75;;;3.42;;
43807;SDS011;29438;50.664;10.098;2022-11-11T15:05:14;8.07;;;3.25;;
43807;SDS011;29438;50.664;10.098;2022-11-11T15:13:27;7.82;;;3.78;;
43807;SDS011;29438;50.664;10.098;2022-11-11T15:21:35;8.63;;;4.18;;
43807;SDS011;29438;50.664;10.098;2022-11-11T15:27:14;7.97;;;3.00;;
43807;SDS011;29438;50.664;10.098;2022-11-11T15:32:26;6.82;;;3.17;;
43807;SDS011;29438;50.664;10.098;2022-11-11T15:37:52;6.60;;;3.08;;
43807;SDS011;29438;50.664;10.098;2022-11-11T15:40:21;7.07;;;3.03;;
43807;SDS011;29438;50.664;10.098;2022-11-11T15:42:49;6.93;;;2.90;;
43807;SDS011;29438;50.664;10.098;2022-11-11T15:45:20;7.95;;;3.63;;
43807;SDS011;29438;50.664;10.098;2022-11-11T15:47:46;7.85;;;3.80;;
43807;SDS011;29438;50.664;10.098;2022-11-11T15:50:18;7.60;;;3.28;;
43807;SDS011;29438;50.664;10.098;2022-11-11T15:52:56;8.77;;;3.28;;
43807;SDS011;29438;50.664;10.098;2022-11-11T15:55:26;8.57;;;3.55;;
43807;SDS011;29438;50.664;10.098;2022-11-11T15:57:54;11.43;;;4.32;;
43807;SDS011;29438;50.664;10.098;2022-11-11T16:00:52;8.90;;;4.10;;
43807;SDS011;29438;50.664;10.098;2022-11-11T16:03:19;11.55;;;5.15;;
43807;SDS011;29438;50.664;10.098;2022-11-11T16:06:00;16.95;;;6.78;;
43807;SDS011;29438;50.664;10.098;2022-11-11T16:08:28;11.85;;;5.28;;
43807;SDS011;29438;50.664;10.098;2022-11-11T16:10:55;12.25;;;5.70;;
43807;SDS011;29438;50.664;10.098;2022-11-11T16:13:27;11.20;;;4.75;;
43807;SDS011;29438;50.664;10.098;2022-11-11T16:18:52;10.07;;;3.95;;
43807;SDS011;29438;50.664;10.098;2022-11-11T16:21:29;8.95;;;3.33;;
43807;SDS011;29438;50.664;10.098;2022-11-11T16:23:59;8.88;;;3.33;;
43807;SDS011;29438;50.664;10.098;2022-11-11T16:26:27;6.43;;;3.10;;
43807;SDS011;29438;50.664;10.098;2022-11-11T16:28:58;9.23;;;3.30;;
43807;SDS011;29438;50.664;10.098;2022-11-11T16:33:59;6.63;;;2.80;;
43807;SDS011;29438;50.664;10.098;2022-11-11T16:39:24;8.88;;;3.88;;
43807;SDS011;29438;50.664;10.098;2022-11-11T16:41:51;8.82;;;3.70;;
43807;SDS011;29438;50.664;10.098;2022-11-11T16:44:28;10.45;;;4.07;;
43807;SDS011;29438;50.664;10.098;2022-11-11T16:50:02;8.15;;;3.38;;
43807;SDS011;29438;50.664;10.098;2022-11-11T16:52:41;8.73;;;3.58;;
43807;SDS011;29438;50.664;10.098;2022-11-11T16:55:16;9.45;;;4.05;;
43807;SDS011;29438;50.664;10.098;2022-11-11T16:57:49;9.75;;;4.20;;
43807;SDS011;29438;50.664;10.098;2022-11-11T17:00:16;15.65;;;6.75;;
43807;SDS011;29438;50.664;10.098;2022-11-11T17:02:44;14.23;;;6.63;;
43807;SDS011;29438;50.664;10.098;2022-11-11T17:05:10;11.68;;;6.22;;
43807;SDS011;29438;50.664;10.098;2022-11-11T17:07:36;15.43;;;7.93;;
43807;SDS011;29438;50.664;10.098;2022-11-11T17:12:36;15.82;;;7.90;;
43807;SDS011;29438;50.664;10.098;2022-11-11T17:15:03;14.48;;;7.13;;
43807;SDS011;29438;50.664;10.098;2022-11-11T17:17:29;14.52;;;6.97;;
43807;SDS011;29438;50.664;10.098;2022-11-11T17:19:55;18.70;;;8.07;;
43807;SDS011;29438;50.664;10.098;2022-11-11T17:22:24;18.23;;;8.05;;
43807;SDS011;29438;50.664;10.098;2022-11-11T17:24:49;12.85;;;5.60;;
43807;SDS011;29438;50.664;10.098;2022-11-11T17:27:15;11.05;;;4.82;;
43807;SDS011;29438;50.664;10.098;2022-11-11T17:29:41;16.85;;;7.53;;
43807;SDS011;29438;50.664;10.098;2022-11-11T17:32:06;20.02;;;9.57;;
43807;SDS011;29438;50.664;10.098;2022-11-11T17:34:32;22.02;;;9.75;;
43807;SDS011;29438;50.664;10.098;2022-11-11T17:36:57;18.67;;;8.57;;
43807;SDS011;29438;50.664;10.098;2022-11-11T17:39:23;16.52;;;7.70;;
43807;SDS011;29438;50.664;10.098;2022-11-11T17:41:49;24.05;;;10.95;;
43807;SDS011;29438;50.664;10.098;2022-11-11T17:44:14;20.85;;;10.32;;
43807;SDS011;29438;50.664;10.098;2022-11-11T17:46:40;24.27;;;10.63;;
43807;SDS011;29438;50.664;10.098;2022-11-11T17:49:06;35.13;;;12.88;;
43807;SDS011;29438;50.664;10.098;2022-11-11T17:51:32;38.85;;;13.88;;
43807;SDS011;29438;50.664;10.098;2022-11-11T17:53:57;47.60;;;15.15;;
43807;SDS011;29438;50.664;10.098;2022-11-11T17:56:23;49.30;;;16.20;;
43807;SDS011;29438;50.664;10.098;2022-11-11T17:58:52;44.25;;;16.08;;